Time;durP1;ratioP1;P1;durP2;ratioP2;P2;SDS_P1;SDS_P2;PMS_P1;PMS_P2;Temp;Humidity;BMP_temperature;BMP_pressure;BME280_temperature;BME280_humidity;BME280_pressure;Samples;Min_cycle;Max_cycle;Signal;HPM_P1;HPM_P2
2022/07/05 00:02:13;;;;;;;2.23;1.50;;;;;;;18.42;59.65;101233.47;5007685;28;20240;-83
2022/07/05 00:04:40;;;;;;;2.93;1.63;;;;;;;18.36;59.80;101226.75;5001138;28;20671;-84
2022/07/05 00:07:20;;;;;;;1.90;1.70;;;;;;;18.27;59.38;101235.66;5004737;28;20213;-84
2022/07/05 00:09:48;;;;;;;2.20;1.33;;;;;;;18.03;59.04;101233.22;4996503;28;20210;-84
2022/07/05 00:12:16;;;;;;;2.47;1.63;;;;;;;17.85;60.04;101232.94;5007866;28;20208;-83
2022/07/05 00:14:43;;;;;;;4.13;1.73;;;;;;;17.74;60.96;101234.81;4990327;28;20209;-83
2022/07/05 00:17:10;;;;;;;5.30;2.07;;;;;;;17.67;61.67;101227.28;5010603;28;20208;-83
2022/07/05 00:19:36;;;;;;;3.57;1.40;;;;;;;17.64;61.94;101232.91;4995666;28;20217;-83
2022/07/05 00:22:03;;;;;;;3.37;1.70;;;;;;;17.62;62.41;101228.59;5002225;28;20228;-84
2022/07/05 00:24:31;;;;;;;2.03;1.70;;;;;;;17.62;62.51;101236.69;4993461;28;20215;-83
2022/07/05 00:26:58;;;;;;;2.40;1.90;;;;;;;17.61;62.49;101234.97;4995633;28;20212;-84
2022/07/05 00:29:25;;;;;;;1.90;1.50;;;;;;;17.55;62.61;101235.50;5010735;28;20259;-82
2022/07/05 00:31:52;;;;;;;1.83;1.67;;;;;;;17.47;62.29;101237.97;4998323;28;20828;-83
2022/07/05 00:34:18;;;;;;;3.67;1.70;;;;;;;17.37;61.79;101235.19;5002280;28;20197;-83
2022/07/05 00:36:45;;;;;;;2.50;1.70;;;;;;;17.30;62.52;101244.72;4998893;28;20308;-83
2022/07/05 00:39:12;;;;;;;3.83;2.27;;;;;;;17.23;62.44;101243.50;4998861;28;20606;-83
2022/07/05 00:41:40;;;;;;;2.70;1.60;;;;;;;17.18;62.92;101237.69;5006816;28;20310;-83
2022/07/05 00:44:13;;;;;;;1.77;1.50;;;;;;;17.16;63.29;101245.00;4995064;28;20220;-83
2022/07/05 00:46:40;;;;;;;3.00;1.63;;;;;;;17.14;63.42;101239.75;5008451;28;20207;-83
2022/07/05 00:49:07;;;;;;;2.00;1.37;;;;;;;17.10;63.20;101249.06;4995541;28;20234;-83
2022/07/05 00:51:36;;;;;;;2.17;1.43;;;;;;;17.07;63.33;101249.28;5003402;28;20287;-83
2022/07/05 00:54:03;;;;;;;1.73;1.20;;;;;;;17.05;63.01;101256.63;4995822;28;20606;-83
2022/07/05 00:56:29;;;;;;;2.97;1.60;;;;;;;17.04;63.17;101254.06;4993968;28;20729;-83
2022/07/05 00:58:57;;;;;;;2.83;1.63;;;;;;;17.04;63.44;101260.31;5001431;28;20234;-83
2022/07/05 01:01:24;;;;;;;3.20;1.60;;;;;;;17.02;63.06;101259.56;4999625;28;20208;-83
2022/07/05 01:03:51;;;;;;;2.43;1.47;;;;;;;16.96;62.78;101254.69;4999715;28;20225;-83
2022/07/05 01:06:17;;;;;;;2.80;1.50;;;;;;;16.89;62.56;101258.84;4999569;28;20210;-84
2022/07/05 01:08:46;;;;;;;5.73;1.77;;;;;;;16.77;62.61;101254.47;5005698;28;20238;-83
2022/07/05 01:11:15;;;;;;;3.10;1.80;;;;;;;16.69;63.18;101248.81;4994319;28;20223;-83
2022/07/05 01:13:41;;;;;;;1.50;1.40;;;;;;;16.64;63.42;101246.50;5002680;28;20207;-83
2022/07/05 01:16:10;;;;;;;2.73;1.40;;;;;;;16.58;63.51;101242.44;5004172;28;20215;-84
2022/07/05 01:18:37;;;;;;;1.70;1.40;;;;;;;16.54;63.42;101242.78;5002825;28;20600;-83
2022/07/05 01:21:04;;;;;;;2.07;1.60;;;;;;;16.44;63.08;101245.38;4997249;28;20197;-84
2022/07/05 01:23:33;;;;;;;2.83;1.43;;;;;;;16.36;63.68;101236.16;4994375;28;20222;-84
2022/07/05 01:26:02;;;;;;;1.67;1.30;;;;;;;16.32;63.93;101243.59;4996008;28;20597;-83
2022/07/05 01:28:28;;;;;;;2.10;1.47;;;;;;;16.29;64.81;101239.34;5002416;28;20700;-83
2022/07/05 01:30:55;;;;;;;2.43;1.50;;;;;;;16.29;65.24;101251.94;4994286;28;20204;-84
2022/07/05 01:33:28;;;;;;;4.00;1.67;;;;;;;16.31;65.52;101249.97;4994381;28;20216;-83
2022/07/05 01:35:55;;;;;;;1.90;1.73;;;;;;;16.31;66.17;101242.75;4997934;28;20678;-83
2022/07/05 01:38:21;;;;;;;2.87;1.43;;;;;;;16.33;66.25;101250.69;4994919;28;20229;-83
2022/07/05 01:40:51;;;;;;;4.03;1.70;;;;;;;16.33;65.82;101248.00;5010612;28;20199;-82
2022/07/05 01:43:18;;;;;;;3.40;2.07;;;;;;;16.29;65.83;101246.56;5001521;28;20683;-83
2022/07/05 01:45:46;;;;;;;2.83;1.50;;;;;;;16.22;65.62;101239.94;4995797;28;20661;-83
2022/07/05 01:48:13;;;;;;;1.87;1.67;;;;;;;16.16;65.53;101237.72;5003263;28;20734;-83
2022/07/05 01:50:44;;;;;;;3.13;1.50;;;;;;;16.09;65.69;101237.34;4997982;28;20205;-83
2022/07/05 01:53:15;;;;;;;2.20;1.43;;;;;;;16.04;65.61;101233.28;4999010;28;20207;-83
2022/07/05 01:55:41;;;;;;;2.97;1.67;;;;;;;16.00;65.88;101242.56;4998337;28;20206;-83
2022/07/05 01:58:09;;;;;;;3.27;1.80;;;;;;;15.98;66.70;101246.22;5001019;28;20245;-83
2022/07/05 02:00:43;;;;;;;2.47;1.80;;;;;;;15.95;66.77;101238.38;5005455;28;20213;-83
2022/07/05 02:03:11;;;;;;;3.40;1.80;;;;;;;15.92;67.61;101244.03;4990145;28;20212;-83
2022/07/05 02:05:38;;;;;;;2.87;1.80;;;;;;;15.87;67.22;101248.88;5004668;28;20221;-83
2022/07/05 02:08:05;;;;;;;1.83;1.57;;;;;;;15.83;66.71;101251.91;5000640;28;20773;-83
2022/07/05 02:10:31;;;;;;;2.00;1.40;;;;;;;15.79;66.72;101256.66;5001274;28;20211;-83
2022/07/05 02:12:58;;;;;;;2.77;2.10;;;;;;;15.76;66.97;101242.63;5006986;28;20203;-82
2022/07/05 02:15:26;;;;;;;2.47;1.50;;;;;;;15.72;66.63;101242.00;5002476;28;20206;-82
2022/07/05 02:17:53;;;;;;;4.60;1.60;;;;;;;15.67;66.84;101240.59;5014432;28;20229;-83
2022/07/05 02:20:19;;;;;;;2.07;1.63;;;;;;;15.61;66.71;101249.97;4998741;28;20208;-83
2022/07/05 02:22:48;;;;;;;3.73;2.10;;;;;;;15.55;67.31;101247.72;5004698;28;20236;-82
2022/07/05 02:25:14;;;;;;;2.17;1.87;;;;;;;15.49;68.28;101248.19;4996810;28;20293;-83
2022/07/05 02:27:41;;;;;;;4.73;2.20;;;;;;;15.42;68.90;101252.28;4996425;28;20315;-82
2022/07/05 02:30:09;;;;;;;5.63;2.10;;;;;;;15.38;69.41;101250.81;4993915;28;20218;-83
2022/07/05 02:32:36;;;;;;;3.97;2.00;;;;;;;15.32;69.28;101243.22;4997310;28;20208;-83
2022/07/05 02:35:04;;;;;;;2.03;1.70;;;;;;;15.25;69.40;101251.69;5009481;28;20670;-83
2022/07/05 02:37:30;;;;;;;2.97;1.60;;;;;;;15.19;69.19;101248.63;5018150;28;20199;-83
2022/07/05 02:39:57;;;;;;;2.07;1.73;;;;;;;15.14;68.93;101248.94;5010343;28;20210;-83
2022/07/05 02:42:24;;;;;;;3.50;1.90;;;;;;;15.10;69.05;101247.44;5007736;28;20725;-83
2022/07/05 02:44:52;;;;;;;2.43;1.80;;;;;;;15.05;68.96;101246.09;5005619;28;20215;-83
2022/07/05 02:47:19;;;;;;;3.13;1.60;;;;;;;15.01;68.67;101242.78;5000328;28;20628;-83
2022/07/05 02:49:47;;;;;;;2.17;1.90;;;;;;;15.01;69.30;101247.28;5014615;28;20238;-83
2022/07/05 02:52:13;;;;;;;2.30;1.60;;;;;;;14.99;69.13;101244.72;5009117;28;20577;-83
2022/07/05 02:54:40;;;;;;;2.37;2.00;;;;;;;15.00;68.83;101245.56;5004963;28;20294;-83
2022/07/05 02:57:07;;;;;;;5.03;2.10;;;;;;;14.96;68.57;101250.28;4999071;28;20582;-83
2022/07/05 02:59:33;;;;;;;4.10;2.07;;;;;;;14.93;68.86;101250.50;5006606;28;20713;-83
2022/07/05 03:02:00;;;;;;;2.97;1.87;;;;;;;14.87;68.71;101256.28;4989828;28;20212;-83
2022/07/05 03:04:26;;;;;;;1.93;1.77;;;;;;;14.84;68.91;101252.03;5008588;28;20626;-83
2022/07/05 03:06:54;;;;;;;3.10;2.10;;;;;;;14.82;69.11;101253.09;4998042;28;20210;-83
2022/07/05 03:09:21;;;;;;;5.23;2.20;;;;;;;14.76;69.55;101249.03;5014028;28;20321;-83
2022/07/05 03:11:47;;;;;;;3.00;1.80;;;;;;;14.71;69.57;101259.22;4995734;28;20212;-83
2022/07/05 03:14:14;;;;;;;4.17;2.40;;;;;;;14.66;70.24;101255.16;5007483;28;20570;-83
2022/07/05 03:16:42;;;;;;;5.50;2.43;;;;;;;14.61;71.14;101263.53;4984840;28;20228;-84
2022/07/05 03:19:08;;;;;;;2.23;2.00;;;;;;;14.55;71.46;101262.13;5004923;28;20223;-84
2022/07/05 03:21:35;;;;;;;4.83;2.77;;;;;;;14.50;71.19;101258.06;5000786;28;20200;-83
2022/07/05 03:24:03;;;;;;;3.80;2.37;;;;;;;14.45;71.78;101265.56;5002439;28;20230;-83
2022/07/05 03:26:30;;;;;;;3.47;2.60;;;;;;;14.41;72.23;101256.03;4996871;28;20216;-83
2022/07/05 03:28:56;;;;;;;4.23;2.60;;;;;;;14.40;73.11;101262.31;5005098;28;20231;-84
2022/07/05 03:31:23;;;;;;;2.97;2.27;;;;;;;14.40;72.81;101260.53;5000107;28;20289;-83
2022/07/05 03:33:49;;;;;;;5.40;2.77;;;;;;;14.41;73.49;101258.69;5008877;28;20202;-83
2022/07/05 03:36:16;;;;;;;3.50;2.40;;;;;;;14.42;73.37;101263.94;5002108;28;20204;-83
2022/07/05 03:38:43;;;;;;;2.97;2.23;;;;;;;14.45;73.38;101265.56;5004745;28;20309;-83
2022/07/05 03:41:10;;;;;;;5.87;2.60;;;;;;;14.47;73.60;101263.66;5015637;28;20205;-84
2022/07/05 03:43:37;;;;;;;4.23;2.70;;;;;;;14.46;72.88;101268.16;4998233;28;20322;-84
2022/07/05 03:46:04;;;;;;;3.97;2.90;;;;;;;14.44;73.35;101264.72;5004206;28;20725;-83
2022/07/05 03:48:30;;;;;;;3.90;3.20;;;;;;;14.46;74.24;101267.28;4997754;28;20219;-83
2022/07/05 03:50:57;;;;;;;3.73;2.93;;;;;;;14.47;74.68;101275.22;4993667;28;20214;-83
2022/07/05 03:53:24;;;;;;;3.83;2.83;;;;;;;14.49;75.11;101273.28;5001622;28;20217;-83
2022/07/05 03:55:50;;;;;;;4.60;2.83;;;;;;;14.53;75.13;101284.63;5000273;28;20215;-83
2022/07/05 03:58:18;;;;;;;3.60;3.03;;;;;;;14.55;75.13;101288.94;4990005;28;20228;-83
2022/07/05 04:00:45;;;;;;;3.97;3.40;;;;;;;14.57;75.43;101289.69;4986736;28;20212;-83
2022/07/05 04:03:11;;;;;;;4.60;3.30;;;;;;;14.60;75.81;101288.63;4993935;28;20227;-83
2022/07/05 04:05:39;;;;;;;3.67;3.20;;;;;;;14.63;75.62;101285.72;5001421;28;20204;-83
2022/07/05 04:08:05;;;;;;;4.20;3.33;;;;;;;14.65;76.27;101285.63;5014879;28;20241;-83
2022/07/05 04:10:32;;;;;;;3.47;3.17;;;;;;;14.64;76.34;101275.88;5001465;28;20211;-83
2022/07/05 04:12:58;;;;;;;4.20;3.50;;;;;;;14.64;76.16;101286.59;4996679;28;20729;-83
2022/07/05 04:15:26;;;;;;;6.93;3.40;;;;;;;14.66;76.66;101287.34;5014491;28;20202;-84
2022/07/05 04:17:55;;;;;;;3.87;3.50;;;;;;;14.68;76.89;101288.09;4999068;28;20260;-83
2022/07/05 04:20:24;;;;;;;4.77;3.50;;;;;;;14.68;76.74;101291.63;5001300;28;20203;-83
2022/07/05 04:22:51;;;;;;;4.00;3.43;;;;;;;14.73;77.31;101302.88;5013072;28;20230;-83
2022/07/05 04:25:18;;;;;;;4.30;3.50;;;;;;;14.77;77.67;101298.16;4996979;28;20214;-83
2022/07/05 04:27:45;;;;;;;4.40;3.47;;;;;;;14.81;77.69;101300.53;4997984;28;20251;-83
2022/07/05 04:30:12;;;;;;;4.23;3.67;;;;;;;14.84;77.45;101302.13;5008347;28;20215;-82
2022/07/05 04:32:41;;;;;;;5.00;3.57;;;;;;;14.88;77.49;101300.91;5000433;28;20204;-83
2022/07/05 04:35:08;;;;;;;3.47;3.17;;;;;;;14.90;77.32;101304.34;5015283;28;20217;-83
2022/07/05 04:37:35;;;;;;;4.20;3.50;;;;;;;14.91;77.56;101298.88;5009276;28;20234;-83
2022/07/05 04:40:01;;;;;;;4.47;3.63;;;;;;;14.97;77.70;101302.09;4998736;28;20207;-83
2022/07/05 04:42:28;;;;;;;4.80;3.50;;;;;;;14.99;77.85;101301.03;4996863;28;20200;-83
2022/07/05 04:44:54;;;;;;;4.23;3.50;;;;;;;15.03;77.88;101302.53;5014638;28;20295;-83
2022/07/05 04:47:21;;;;;;;4.10;3.40;;;;;;;15.09;77.39;101302.06;4997153;28;20577;-83
2022/07/05 04:49:49;;;;;;;4.37;3.33;;;;;;;15.14;77.74;101304.44;4997690;28;20219;-83
2022/07/05 04:52:16;;;;;;;4.20;3.00;;;;;;;15.18;77.63;101312.16;4996358;28;20301;-83
2022/07/05 04:54:42;;;;;;;6.37;3.03;;;;;;;15.23;77.45;101309.97;5003690;28;20198;-83
2022/07/05 04:57:09;;;;;;;4.70;3.03;;;;;;;15.29;77.75;101304.19;5016108;28;20290;-84
2022/07/05 04:59:36;;;;;;;4.63;3.50;;;;;;;15.35;77.69;101302.88;5016169;28;20306;-84
2022/07/05 05:02:03;;;;;;;5.80;3.13;;;;;;;15.42;77.79;101311.34;5006097;28;20210;-83
2022/07/05 05:04:29;;;;;;;5.03;3.30;;;;;;;15.47;77.71;101315.41;4996350;28;20238;-84
2022/07/05 05:06:58;;;;;;;4.73;3.00;;;;;;;15.54;77.23;101316.69;4997757;28;20203;-84
2022/07/05 05:09:25;;;;;;;5.37;3.90;;;;;;;15.58;77.10;101314.66;4996370;28;20274;-84
2022/07/05 05:11:51;;;;;;;6.40;3.50;;;;;;;15.65;77.43;101318.59;5007999;28;20584;-83
2022/07/05 05:14:18;;;;;;;6.43;3.60;;;;;;;15.70;77.17;101311.06;5002794;28;20211;-84
2022/07/05 05:16:45;;;;;;;5.10;3.40;;;;;;;15.75;77.12;101319.66;5003390;28;20272;-84
2022/07/05 05:19:12;;;;;;;5.73;3.40;;;;;;;15.82;76.88;101320.88;5004573;28;20336;-83
2022/07/05 05:21:38;;;;;;;6.27;3.60;;;;;;;15.90;76.85;101326.56;4995105;28;20209;-83
2022/07/05 05:24:07;;;;;;;8.20;3.30;;;;;;;15.96;76.87;101320.69;4993608;28;20231;-84
2022/07/05 05:26:34;;;;;;;5.23;3.30;;;;;;;16.04;76.80;101328.19;4982914;28;20200;-84
2022/07/05 05:29:01;;;;;;;6.10;3.17;;;;;;;16.14;76.79;101322.97;5000324;28;20692;-84
2022/07/05 05:31:27;;;;;;;8.40;4.03;;;;;;;16.25;76.75;101333.78;4992151;28;20213;-85
2022/07/05 05:33:54;;;;;;;6.57;3.73;;;;;;;16.35;76.54;101325.84;4981200;28;20205;-84
2022/07/05 05:36:20;;;;;;;6.97;3.47;;;;;;;16.43;76.05;101324.31;4986499;28;20578;-84
2022/07/05 05:38:47;;;;;;;5.60;3.60;;;;;;;16.50;75.95;101332.72;4988566;28;20222;-83
2022/07/05 05:41:15;;;;;;;6.37;3.53;;;;;;;16.57;75.55;101329.47;4986010;28;20229;-83
2022/07/05 05:43:41;;;;;;;6.83;3.40;;;;;;;16.63;75.59;101341.63;4986023;28;20231;-84
2022/07/05 05:46:08;;;;;;;8.47;3.70;;;;;;;16.70;75.48;101336.59;4981013;28;20577;-84
2022/07/05 05:48:34;;;;;;;5.90;3.73;;;;;;;16.80;75.27;101341.16;4986372;28;20234;-84
2022/07/05 05:51:01;;;;;;;7.00;3.13;;;;;;;16.87;74.65;101342.38;4989540;28;20218;-85
2022/07/05 05:53:27;;;;;;;7.57;3.33;;;;;;;16.94;74.17;101348.13;4990776;28;20212;-85
2022/07/05 05:55:54;;;;;;;6.47;3.10;;;;;;;17.03;74.01;101339.31;4991332;28;20207;-84
2022/07/05 05:58:24;;;;;;;5.97;2.93;;;;;;;17.15;74.26;101332.13;4995938;28;20221;-84
2022/07/05 06:00:52;;;;;;;4.73;2.80;;;;;;;17.31;73.94;101344.22;4989134;28;20207;-84
2022/07/05 06:03:19;;;;;;;6.40;3.37;;;;;;;17.44;73.02;101346.78;4979321;28;20314;-84
2022/07/05 06:05:46;;;;;;;5.17;3.40;;;;;;;17.54;72.61;101349.59;4984400;28;20255;-84
2022/07/05 06:08:13;;;;;;;5.77;3.27;;;;;;;17.66;72.30;101348.63;4992097;28;20238;-84
2022/07/05 06:10:40;;;;;;;4.57;3.03;;;;;;;17.81;72.07;101357.28;4986724;28;20204;-83
2022/07/05 06:13:09;;;;;;;7.70;3.27;;;;;;;17.98;71.74;101362.13;4992899;28;20698;-84
2022/07/05 06:15:38;;;;;;;4.47;2.90;;;;;;;18.13;70.74;101354.59;4992300;28;20205;-83
2022/07/05 06:18:05;;;;;;;5.67;2.70;;;;;;;18.25;70.24;101361.66;4976383;28;20228;-83
2022/07/05 06:20:33;;;;;;;4.23;2.87;;;;;;;18.31;69.59;101361.13;4998026;28;20289;-84
2022/07/05 06:23:02;;;;;;;4.60;2.70;;;;;;;18.35;69.36;101357.19;5001402;28;20204;-84
2022/07/05 06:25:29;;;;;;;4.50;2.67;;;;;;;18.38;68.91;101362.34;4989970;28;20769;-84
2022/07/05 06:27:57;;;;;;;6.17;2.90;;;;;;;18.39;68.68;101377.53;4991928;28;20234;-84
2022/07/05 06:30:25;;;;;;;5.00;2.70;;;;;;;18.48;68.81;101374.03;4993938;28;20207;-83
2022/07/05 06:32:53;;;;;;;4.83;2.73;;;;;;;18.61;68.67;101374.75;4993894;28;20204;-84
2022/07/05 06:35:21;;;;;;;6.83;3.03;;;;;;;18.71;68.24;101370.28;4988896;28;20879;-84
2022/07/05 06:37:51;;;;;;;4.97;2.83;;;;;;;18.85;68.12;101365.50;4988812;28;21068;-84
2022/07/05 06:40:19;;;;;;;5.37;2.63;;;;;;;18.94;67.24;101365.59;4986223;28;20296;-84
2022/07/05 06:42:46;;;;;;;8.50;3.00;;;;;;;19.05;66.86;101376.28;4986037;28;20201;-83
2022/07/05 06:45:13;;;;;;;6.53;2.77;;;;;;;19.21;66.65;101374.94;4990749;28;20226;-84
2022/07/05 06:47:39;;;;;;;4.13;2.73;;;;;;;19.34;66.02;101376.44;4990566;28;20228;-83
2022/07/05 06:50:08;;;;;;;5.03;2.70;;;;;;;19.48;65.13;101379.75;4996024;28;20214;-83
2022/07/05 06:52:35;;;;;;;4.87;2.50;;;;;;;19.51;64.04;101384.91;4993451;28;20214;-83
2022/07/05 06:55:02;;;;;;;4.93;2.27;;;;;;;19.51;63.29;101374.97;4992468;28;20666;-84
2022/07/05 06:57:29;;;;;;;4.93;2.10;;;;;;;19.56;63.26;101378.09;4993253;28;20204;-84
2022/07/05 06:59:56;;;;;;;5.20;2.13;;;;;;;19.66;63.00;101381.69;4993323;28;20207;-84
2022/07/05 07:02:23;;;;;;;5.50;2.57;;;;;;;19.78;62.96;101377.03;4982443;28;20209;-84
2022/07/05 07:04:50;;;;;;;4.80;2.13;;;;;;;19.92;62.49;101384.72;4999521;28;20296;-84
2022/07/05 07:10:03;;;;;;;4.00;2.10;;;;;;;20.25;60.85;101379.91;5000036;28;20280;-84
2022/07/05 07:12:30;;;;;;;6.13;2.23;;;;;;;20.36;60.46;101380.69;5005905;28;20586;-84
2022/07/05 07:14:56;;;;;;;4.07;2.17;;;;;;;20.49;59.41;101382.22;4989585;28;20208;-84
2022/07/05 07:17:23;;;;;;;5.17;1.40;;;;;;;20.60;58.20;101374.81;4984554;28;20207;-84
2022/07/05 07:19:50;;;;;;;3.20;1.53;;;;;;;20.64;56.46;101378.94;4991293;28;20204;-84
2022/07/05 07:22:18;;;;;;;2.97;1.23;;;;;;;20.69;55.05;101387.50;4982555;28;20211;-85
2022/07/05 07:24:44;;;;;;;3.63;1.30;;;;;;;20.72;54.19;101383.66;4990835;28;20227;-84
2022/07/05 07:27:11;;;;;;;3.57;1.30;;;;;;;20.80;53.90;101387.31;4981750;28;20202;-84
2022/07/05 07:29:39;;;;;;;3.08;1.48;;;;;;;20.94;53.27;101377.91;4993395;28;20223;-83
2022/07/05 07:32:08;;;;;;;3.10;1.50;;;;;;;21.08;52.35;101374.72;4986973;28;20665;-84
2022/07/05 07:34:36;;;;;;;4.15;1.30;;;;;;;21.19;50.10;101381.81;4986318;28;20243;-84
2022/07/05 07:37:03;;;;;;;3.22;1.23;;;;;;;21.29;50.73;101382.66;4985948;28;20210;-84
2022/07/05 07:39:31;;;;;;;3.85;1.40;;;;;;;21.42;50.40;101369.63;4988864;28;20227;-84
2022/07/05 07:41:58;;;;;;;2.05;1.33;;;;;;;21.61;50.40;101370.53;4987044;28;20234;-83
2022/07/05 07:44:25;;;;;;;2.97;1.42;;;;;;;21.74;49.88;101387.28;4982210;28;20237;-83
2022/07/05 07:46:51;;;;;;;2.90;1.55;;;;;;;21.87;49.37;101373.34;4984432;28;20227;-84
2022/07/05 07:49:18;;;;;;;2.97;1.45;;;;;;;21.90;48.67;101375.75;4982272;28;20231;-84
2022/07/05 07:51:45;;;;;;;3.67;1.27;;;;;;;21.97;48.18;101385.88;4987448;28;20214;-83
2022/07/05 07:54:11;;;;;;;2.65;1.10;;;;;;;22.05;47.84;101366.13;4979637;28;20203;-84
2022/07/05 07:56:39;;;;;;;1.90;0.85;;;;;;;22.15;47.67;101380.50;4977773;28;20204;-84
2022/07/05 07:59:06;;;;;;;2.70;1.20;;;;;;;22.23;46.81;101385.13;4986031;28;20238;-84
2022/07/05 08:01:32;;;;;;;1.00;0.90;;;;;;;22.27;46.07;101381.09;4985406;28;20663;-84
2022/07/05 08:03:59;;;;;;;3.33;1.00;;;;;;;22.37;45.66;101376.47;4987746;28;20853;-84
2022/07/05 08:06:25;;;;;;;1.48;1.00;;;;;;;22.48;44.99;101384.34;4979207;28;20300;-83
2022/07/05 08:08:52;;;;;;;2.83;1.20;;;;;;;22.58;44.52;101381.53;4987775;28;20724;-84
2022/07/05 08:11:18;;;;;;;1.55;1.00;;;;;;;22.71;43.84;101379.28;4982538;28;20218;-84
2022/07/05 08:13:47;;;;;;;1.17;1.00;;;;;;;22.85;43.56;101376.03;4982408;28;20650;-84
2022/07/05 08:16:16;;;;;;;1.55;1.00;;;;;;;22.97;43.41;101373.88;4981301;28;20261;-85
2022/07/05 08:21:35;;;;;;;1.30;0.90;;;;;;;23.22;43.34;101378.47;4985698;28;20245;-84
2022/07/05 08:24:03;;;;;;;3.03;1.15;;;;;;;23.37;42.59;101373.28;4980753;28;20204;-84
2022/07/05 08:26:31;;;;;;;4.38;1.23;;;;;;;23.45;42.38;101376.03;4986583;28;20238;-85
2022/07/05 08:28:59;;;;;;;2.83;1.10;;;;;;;23.54;42.11;101375.94;4984167;28;20694;-84
2022/07/05 08:31:27;;;;;;;3.33;1.10;;;;;;;23.61;41.65;101372.56;4986776;28;20743;-84
2022/07/05 08:33:53;;;;;;;1.63;1.00;;;;;;;23.62;41.50;101371.56;4985047;28;20214;-85
2022/07/05 08:36:20;;;;;;;1.98;1.02;;;;;;;23.64;41.24;101362.22;4989094;28;20206;-84
2022/07/05 08:38:46;;;;;;;3.72;0.95;;;;;;;23.71;41.30;101360.53;4988988;28;20230;-85
2022/07/05 08:41:13;;;;;;;1.65;0.90;;;;;;;23.80;41.06;101366.84;4986165;28;20204;-85
2022/07/05 08:43:42;;;;;;;1.52;0.98;;;;;;;23.85;40.56;101365.31;4986807;28;20223;-85
2022/07/05 08:46:10;;;;;;;2.22;1.08;;;;;;;23.81;40.21;101365.84;4986366;28;20218;-84
2022/07/05 08:48:41;;;;;;;2.08;1.00;;;;;;;23.80;40.52;101362.25;4982736;28;20645;-85
2022/07/05 08:51:11;;;;;;;1.17;0.88;;;;;;;23.81;40.48;101365.84;4986611;28;20266;-84
2022/07/05 08:53:38;;;;;;;2.83;1.20;;;;;;;23.86;40.33;101360.72;4983224;28;20217;-84
2022/07/05 08:56:06;;;;;;;2.67;1.00;;;;;;;23.88;40.42;101362.28;4984383;28;20200;-85
2022/07/05 08:58:33;;;;;;;1.48;0.90;;;;;;;23.95;40.42;101369.78;4995498;28;20223;-84
2022/07/05 09:01:00;;;;;;;1.10;0.90;;;;;;;24.01;40.09;101366.38;4983579;28;20208;-84
2022/07/05 09:03:33;;;;;;;1.55;1.10;;;;;;;24.12;40.00;101366.91;4989601;28;20218;-84
2022/07/05 09:06:01;;;;;;;2.85;1.17;;;;;;;24.27;39.45;101375.31;4985835;28;20213;-84
2022/07/05 09:08:32;;;;;;;1.35;1.10;;;;;;;24.35;38.75;101369.88;4989448;28;20227;-84
2022/07/05 09:10:58;;;;;;;1.30;0.90;;;;;;;24.45;38.97;101369.69;4988454;28;20590;-84
2022/07/05 09:13:25;;;;;;;1.52;1.00;;;;;;;24.55;38.40;101371.22;4991413;28;20225;-84
2022/07/05 09:15:52;;;;;;;1.08;0.80;;;;;;;24.63;37.96;101370.38;4987246;28;20224;-85
2022/07/05 09:18:44;;;;;;;3.30;1.20;;;;;;;24.73;37.93;101372.91;4987158;28;20233;-84
2022/07/05 09:21:19;;;;;;;1.05;0.80;;;;;;;24.79;37.39;101364.91;4987850;28;20207;-84
2022/07/05 09:23:53;;;;;;;1.63;1.20;;;;;;;24.81;36.68;101367.47;4986985;28;20209;-84
2022/07/05 09:26:19;;;;;;;1.27;1.15;;;;;;;24.81;36.51;101371.03;4984401;28;20722;-84
2022/07/05 09:28:55;;;;;;;1.15;0.88;;;;;;;24.86;36.48;101365.94;4990799;28;20235;-84
2022/07/05 09:31:30;;;;;;;1.10;1.00;;;;;;;24.88;35.51;101366.63;4987759;28;20211;-84
2022/07/05 09:34:05;;;;;;;1.92;1.05;;;;;;;24.91;35.84;101357.22;4993524;28;20202;-84
2022/07/05 09:36:52;;;;;;;0.98;0.77;;;;;;;24.99;35.24;101364.56;4992507;28;20724;-84
2022/07/05 09:39:19;;;;;;;0.88;0.77;;;;;;;24.97;35.14;101356.56;4994287;28;20258;-84
2022/07/05 09:41:45;;;;;;;1.20;0.90;;;;;;;24.99;34.48;101365.41;4996203;28;20207;-84
2022/07/05 09:44:12;;;;;;;1.75;1.00;;;;;;;25.05;35.00;101359.28;4992195;28;20579;-84
2022/07/05 09:46:38;;;;;;;1.15;0.80;;;;;;;25.16;33.97;101367.06;4990953;28;20227;-84
2022/07/05 09:49:06;;;;;;;1.75;0.98;;;;;;;25.27;34.42;101354.94;4998472;28;20697;-84
2022/07/05 09:51:48;;;;;;;1.80;0.90;;;;;;;25.42;34.27;101363.25;4996739;28;20642;-84
2022/07/05 09:54:15;;;;;;;0.98;0.80;;;;;;;25.44;33.15;101355.75;4997354;28;20198;-84
2022/07/05 09:56:46;;;;;;;2.17;0.95;;;;;;;25.48;34.15;101347.03;4990536;28;20223;-85
2022/07/05 09:59:14;;;;;;;0.98;0.80;;;;;;;25.57;33.64;101345.13;4995771;28;20222;-85
2022/07/05 10:01:41;;;;;;;0.95;0.70;;;;;;;25.69;33.20;101351.03;4983893;28;20218;-85
2022/07/05 10:04:09;;;;;;;1.17;0.80;;;;;;;25.75;33.24;101350.34;4990636;28;20231;-85
2022/07/05 10:06:36;;;;;;;0.98;0.60;;;;;;;25.71;33.27;101359.91;4993199;28;20223;-84
2022/07/05 10:09:03;;;;;;;0.77;0.77;;;;;;;25.60;33.12;101358.41;4991342;28;20805;-83
2022/07/05 10:11:29;;;;;;;1.13;0.98;;;;;;;25.50;33.12;101353.16;4996669;28;20556;-85
2022/07/05 10:13:56;;;;;;;1.60;0.80;;;;;;;25.51;33.60;101343.09;4994196;28;20207;-84
2022/07/05 10:16:24;;;;;;;0.73;0.70;;;;;;;25.53;33.91;101352.81;4992137;28;20231;-85
2022/07/05 10:18:52;;;;;;;1.70;0.80;;;;;;;25.49;32.97;101358.78;5002804;28;20293;-85
2022/07/05 10:21:21;;;;;;;0.82;0.70;;;;;;;25.36;32.76;101362.06;4993161;28;20210;-85
2022/07/05 10:23:51;;;;;;;2.80;0.90;;;;;;;25.28;33.31;101362.09;4992998;28;20204;-84
2022/07/05 10:26:20;;;;;;;2.13;0.82;;;;;;;25.29;33.61;101363.78;5002412;28;20216;-84
2022/07/05 10:28:49;;;;;;;1.20;0.80;;;;;;;25.41;33.53;101369.75;4996279;28;20243;-84
2022/07/05 10:31:16;;;;;;;1.88;0.80;;;;;;;25.50;33.02;101364.06;4997287;28;20202;-84
2022/07/05 10:33:43;;;;;;;1.05;0.70;;;;;;;25.50;31.90;101360.47;4997444;28;20227;-85
2022/07/05 10:36:12;;;;;;;2.00;0.60;;;;;;;25.47;31.37;101353.50;4990682;28;20210;-85
2022/07/05 10:38:42;;;;;;;2.47;0.80;;;;;;;25.49;31.94;101367.81;4988946;28;20224;-85
2022/07/05 10:41:12;;;;;;;2.22;0.80;;;;;;;25.54;31.82;101356.38;4994641;28;20203;-85
2022/07/05 10:43:38;;;;;;;1.00;0.80;;;;;;;25.53;31.56;101352.81;4992766;28;20261;-84
2022/07/05 10:46:07;;;;;;;2.92;0.90;;;;;;;25.49;31.98;101343.25;4985824;28;20215;-85
2022/07/05 10:48:35;;;;;;;4.72;0.90;;;;;;;25.48;32.01;101359.81;4987322;28;20251;-84
2022/07/05 10:51:14;;;;;;;1.17;0.80;;;;;;;25.50;32.14;101352.31;4983192;28;20206;-84
2022/07/05 10:54:10;;;;;;;1.55;0.88;;;;;;;25.57;31.65;101354.16;4979597;28;20192;-84
2022/07/05 10:56:40;;;;;;;0.80;0.70;;;;;;;25.66;31.99;101352.25;4980327;28;20204;-83
2022/07/05 10:59:09;;;;;;;0.73;0.70;;;;;;;25.81;31.91;101353.19;4982433;28;20259;-84
2022/07/05 11:01:40;;;;;;;1.17;0.80;;;;;;;25.92;32.16;101355.53;4981507;28;20211;-84
2022/07/05 11:04:35;;;;;;;2.28;0.93;;;;;;;25.91;31.58;101356.56;4983606;28;20204;-84
2022/07/05 11:07:03;;;;;;;2.70;0.80;;;;;;;25.91;32.21;101353.81;4988175;28;20215;-85
2022/07/05 11:09:31;;;;;;;1.77;0.90;;;;;;;25.98;32.10;101358.56;4989890;28;20314;-85
2022/07/05 11:12:08;;;;;;;3.17;0.75;;;;;;;25.97;31.53;101354.13;4991012;28;20207;-85
2022/07/05 11:14:39;;;;;;;1.45;0.70;;;;;;;25.94;31.40;101349.88;4989112;28;20576;-85
2022/07/05 11:17:22;;;;;;;1.40;0.80;;;;;;;26.00;31.19;101345.56;4990413;28;20204;-85
2022/07/05 11:20:12;;;;;;;1.75;0.70;;;;;;;26.01;30.74;101337.19;4990646;28;20566;-85
2022/07/05 11:22:42;;;;;;;0.95;0.65;;;;;;;25.97;30.73;101346.81;4991697;28;20659;-85
2022/07/05 11:25:11;;;;;;;1.00;0.60;;;;;;;26.01;30.31;101331.75;4994017;28;20238;-84
2022/07/05 11:28:05;;;;;;;2.40;0.80;;;;;;;26.04;30.08;101331.38;4991181;28;20211;-85
2022/07/05 11:30:46;;;;;;;1.75;0.70;;;;;;;26.06;30.12;101329.31;5000219;28;20254;-85
2022/07/05 11:33:27;;;;;;;1.25;0.90;;;;;;;26.09;29.89;101326.25;4987952;28;20295;-84
2022/07/05 11:35:54;;;;;;;1.60;0.70;;;;;;;26.13;29.55;101324.00;4988499;28;20234;-84